Time;durP1;ratioP1;P1;durP2;ratioP2;P2;SDS_P1;SDS_P2;PMS_P1;PMS_P2;Temp;Humidity;BMP_temperature;BMP_pressure;BME280_temperature;BME280_humidity;BME280_pressure;Samples;Min_cycle;Max_cycle;Signal;HPM_P1;HPM_P2
2022/12/31 00:00:01;;;;;;;6.63;6.00;;;;;;;-148.88;100.00;74887.66;5034023;28;20036;-73
2022/12/31 00:02:27;;;;;;;9.15;6.97;;;;;;;-148.88;100.00;74901.88;5033664;28;20031;-73
2022/12/31 00:04:53;;;;;;;7.93;7.13;;;;;;;-148.88;100.00;74907.97;5033228;28;20025;-73
2022/12/31 00:07:19;;;;;;;7.60;6.90;;;;;;;-148.88;100.00;74918.13;5033212;28;20017;-73
2022/12/31 00:09:44;;;;;;;9.63;8.55;;;;;;;-148.88;100.00;74916.09;5033239;28;20051;-73
2022/12/31 00:12:09;;;;;;;8.60;7.80;;;;;;;-148.88;100.00;74924.22;5014857;28;20067;-73
2022/12/31 00:14:35;;;;;;;9.63;8.65;;;;;;;-148.88;100.00;74924.22;5015269;28;20048;-73
2022/12/31 00:17:00;;;;;;;8.73;7.93;;;;;;;-148.88;100.00;74936.41;5015377;28;20067;-73
2022/12/31 00:19:26;;;;;;;8.40;7.15;;;;;;;-148.88;100.00;74928.28;5033138;28;20034;-73
2022/12/31 00:21:51;;;;;;;6.80;6.10;;;;;;;-148.88;100.00;74924.22;5033046;28;20025;-73
2022/12/31 00:24:16;;;;;;;6.22;5.63;;;;;;;-148.88;100.00;74924.22;5015071;28;20091;-73
2022/12/31 00:26:41;;;;;;;5.53;4.95;;;;;;;-148.88;100.00;74924.22;5015154;28;20470;-73
2022/12/31 00:29:07;;;;;;;7.88;4.80;;;;;;;-148.88;100.00;74912.03;5032803;28;20037;-74
2022/12/31 00:31:34;;;;;;;5.00;4.50;;;;;;;-148.88;100.00;74916.09;5032906;28;20116;-73
2022/12/31 00:34:00;;;;;;;4.95;4.55;;;;;;;-148.88;100.00;74916.09;5032876;28;20437;-73
2022/12/31 00:36:37;;;;;;;5.45;4.63;;;;;;;-148.88;100.00;74928.28;5032701;28;20025;-73
2022/12/31 00:39:04;;;;;;;5.35;4.22;;;;;;;-148.88;100.00;74924.22;5015225;28;20059;-74
2022/12/31 00:41:30;;;;;;;3.95;3.25;;;;;;;-148.88;100.00;74932.34;5015575;28;20389;-73
2022/12/31 00:43:55;;;;;;;3.90;3.35;;;;;;;-148.88;100.00;74946.53;5032770;28;20455;-73
2022/12/31 00:46:21;;;;;;;3.92;3.38;;;;;;;-148.88;100.00;74938.44;5014767;28;20112;-73
2022/12/31 00:48:46;;;;;;;4.60;3.47;;;;;;;-148.88;100.00;74928.28;5032651;28;20382;-73
2022/12/31 00:51:15;;;;;;;3.97;3.55;;;;;;;-148.88;100.00;74938.44;5032370;28;20119;-74
2022/12/31 00:53:42;;;;;;;4.88;4.28;;;;;;;-148.88;100.00;74942.47;5032055;28;20104;-74
2022/12/31 00:56:17;;;;;;;5.43;4.93;;;;;;;-148.88;100.00;74940.47;5032178;28;20088;-74
2022/12/31 00:58:43;;;;;;;6.57;5.50;;;;;;;-148.88;100.00;74940.47;5032184;28;20044;-74
2022/12/31 01:01:09;;;;;;;9.32;6.10;;;;;;;-148.88;100.00;74948.56;5032101;28;20025;-74
2022/12/31 01:03:34;;;;;;;6.50;5.85;;;;;;;-148.88;100.00;74944.53;5014194;28;20032;-74
2022/12/31 01:06:00;;;;;;;7.28;6.57;;;;;;;-148.88;100.00;74952.63;5032012;28;20021;-74
2022/12/31 01:08:25;;;;;;;7.00;6.38;;;;;;;-148.88;100.00;74948.56;5032108;28;20029;-74
2022/12/31 01:13:34;;;;;;;;;;;;;;;-148.88;100.00;74950.59;5032687;28;20513;-73
2022/12/31 01:16:08;;;;;;;7.25;5.47;;;;;;;-148.88;100.00;74946.53;5032145;28;19909;-74
2022/12/31 01:18:33;;;;;;;6.00;5.00;;;;;;;-148.88;100.00;74948.56;5032498;28;20033;-74
2022/12/31 01:21:02;;;;;;;6.10;5.00;;;;;;;-148.88;100.00;74948.56;5014558;28;20381;-74
2022/12/31 01:23:28;;;;;;;6.13;4.88;;;;;;;-148.88;100.00;74952.63;5015011;28;20036;-74
2022/12/31 01:25:53;;;;;;;5.13;4.63;;;;;;;-148.88;100.00;74944.53;5018502;28;20026;-74
2022/12/31 01:28:18;;;;;;;5.68;4.45;;;;;;;-148.88;100.00;74948.56;5036459;28;20032;-74
2022/12/31 01:30:43;;;;;;;5.80;4.70;;;;;;;-148.88;100.00;74940.47;5036148;28;20059;-73
2022/12/31 01:33:09;;;;;;;5.45;4.32;;;;;;;-148.88;100.00;74940.47;5036229;28;20036;-73
2022/12/31 01:35:37;;;;;;;5.03;4.20;;;;;;;-148.88;100.00;74950.59;5036159;28;20076;-74
2022/12/31 01:38:02;;;;;;;4.82;4.20;;;;;;;-148.88;100.00;74948.56;5018108;28;20017;-73
2022/12/31 01:40:28;;;;;;;4.38;3.97;;;;;;;-148.88;100.00;74946.53;5035944;28;20022;-74
2022/12/31 01:42:55;;;;;;;4.30;3.60;;;;;;;-148.88;100.00;74938.44;5017881;28;20056;-74
2022/12/31 01:45:21;;;;;;;3.70;3.00;;;;;;;-148.88;100.00;74940.47;5037362;28;20029;-74
2022/12/31 01:47:52;;;;;;;3.50;2.80;;;;;;;-148.88;100.00;74932.34;5018156;28;20394;-74
2022/12/31 01:50:26;;;;;;;2.90;2.30;;;;;;;-148.88;100.00;74938.44;5035589;28;20363;-74
2022/12/31 01:52:57;;;;;;;2.80;2.33;;;;;;;-148.88;100.00;74946.53;5035551;28;20111;-74
2022/12/31 01:55:34;;;;;;;2.72;1.90;;;;;;;-148.88;100.00;74934.38;5035697;28;20148;-74
2022/12/31 01:58:09;;;;;;;4.10;2.15;;;;;;;-148.88;100.00;74924.22;5035746;28;20025;-74
2022/12/31 02:00:34;;;;;;;3.45;2.13;;;;;;;-148.88;100.00;74918.13;5035377;28;20450;-73
2022/12/31 02:03:00;;;;;;;3.35;1.73;;;;;;;-148.88;100.00;74903.91;5035555;28;20029;-73
2022/12/31 02:05:42;;;;;;;2.80;2.00;;;;;;;-148.88;100.00;74922.19;5017888;28;20112;-74
2022/12/31 02:08:14;;;;;;;2.10;1.70;;;;;;;-148.88;100.00;74934.38;5017889;28;20025;-74
2022/12/31 02:10:40;;;;;;;4.07;1.90;;;;;;;-148.88;100.00;74942.47;5016942;28;20028;-74
2022/12/31 02:13:06;;;;;;;2.45;1.70;;;;;;;-148.88;100.00;74936.41;5034622;28;20033;-74
2022/12/31 02:15:53;;;;;;;4.20;1.70;;;;;;;-148.88;100.00;74938.44;5034559;28;20109;-75
2022/12/31 02:18:29;;;;;;;2.58;1.58;;;;;;;-148.88;100.00;74938.44;5034585;28;20034;-75
2022/12/31 02:21:18;;;;;;;3.03;1.63;;;;;;;-148.88;100.00;74940.47;5034875;28;20024;-75
2022/12/31 02:24:22;;;;;;;2.50;1.55;;;;;;;-148.88;100.00;74938.44;5034586;28;20021;-74
2022/12/31 02:27:15;;;;;;;2.13;1.55;;;;;;;-148.88;100.00;74938.44;5016696;28;20025;-74
2022/12/31 02:30:02;;;;;;;3.25;1.80;;;;;;;-148.88;100.00;74938.44;5081008;22;20050;-77
2022/12/31 02:32:36;;;;;;;2.35;1.60;;;;;;;-148.88;100.00;74940.47;5035423;28;20125;-77
2022/12/31 02:35:09;;;;;;;2.67;2.00;;;;;;;-148.88;100.00;74944.53;5017156;28;20075;-77
2022/12/31 02:37:40;;;;;;;2.42;2.15;;;;;;;-148.88;100.00;74942.47;5035043;28;20035;-77
2022/12/31 02:40:12;;;;;;;2.28;1.70;;;;;;;-148.88;100.00;74936.41;5034830;28;20030;-77
2022/12/31 02:42:37;;;;;;;1.85;1.25;;;;;;;-148.88;100.00;74928.28;5034755;28;20025;-76
2022/12/31 02:45:02;;;;;;;1.70;1.20;;;;;;;-148.88;100.00;74940.47;5016838;28;20032;-76
2022/12/31 02:47:39;;;;;;;2.13;1.27;;;;;;;-148.88;100.00;74944.53;5017951;28;20029;-77
2022/12/31 02:50:23;;;;;;;1.40;1.10;;;;;;;-148.88;100.00;74932.34;5016814;28;20061;-77
2022/12/31 02:53:11;;;;;;;;;;;;;;;-148.88;100.00;74948.56;5035108;28;20033;-77
2022/12/31 02:56:02;;;;;;;1.63;1.10;;;;;;;-148.88;100.00;74932.34;5034065;28;19959;-77
2022/12/31 03:04:34;;;;;;;3.38;1.00;;;;;;;-148.88;100.00;74922.19;5034639;28;20044;-77
2022/12/31 03:07:09;;;;;;;2.45;1.50;;;;;;;-148.88;100.00;74907.97;5034610;28;20104;-77
2022/12/31 03:09:35;;;;;;;2.22;1.30;;;;;;;-148.88;100.00;74916.09;5034334;28;20474;-77
2022/12/31 03:14:46;;;;;;;1.92;1.35;;;;;;;-148.88;100.00;74924.22;5034619;28;20051;-77
2022/12/31 03:17:11;;;;;;;2.15;1.20;;;;;;;-148.88;100.00;74916.09;5034367;28;20422;-77
2022/12/31 03:22:26;;;;;;;1.35;0.85;;;;;;;-148.88;100.00;74932.34;5034065;28;20056;-77
2022/12/31 03:27:47;;;;;;;2.50;0.90;;;;;;;-148.88;100.00;74903.91;5034166;28;20052;-77
2022/12/31 03:30:15;;;;;;;2.38;1.00;;;;;;;-148.88;100.00;74928.28;5033745;28;20417;-77
2022/12/31 03:32:42;;;;;;;2.05;1.30;;;;;;;-148.88;100.00;74879.53;5034081;28;20393;-77
2022/12/31 03:35:09;;;;;;;2.90;1.52;;;;;;;-148.88;100.00;74914.06;5033603;28;20021;-77
2022/12/31 03:37:34;;;;;;;2.33;1.70;;;;;;;-148.88;100.00;74899.84;5016108;28;20031;-77
2022/12/31 03:39:59;;;;;;;3.35;1.33;;;;;;;-148.88;100.00;74871.41;5033627;28;20361;-76
2022/12/31 03:42:25;;;;;;;2.10;1.70;;;;;;;-148.88;100.00;74867.34;5033667;28;20104;-77
2022/12/31 03:44:50;;;;;;;2.20;1.75;;;;;;;-148.88;100.00;74873.44;5015927;28;20025;-77
2022/12/31 03:47:15;;;;;;;2.30;1.88;;;;;;;-148.88;100.00;74875.47;5032983;28;20021;-76
2022/12/31 03:49:40;;;;;;;1.98;1.42;;;;;;;-148.88;100.00;74879.53;5016001;28;20051;-77
2022/12/31 03:52:07;;;;;;;2.05;1.30;;;;;;;-148.88;100.00;74895.78;5033548;28;20075;-77
2022/12/31 03:54:33;;;;;;;2.75;1.33;;;;;;;-148.88;100.00;74901.88;5033608;28;20061;-77
2022/12/31 03:56:59;;;;;;;2.08;1.33;;;;;;;-148.88;100.00;74920.16;5015591;28;20112;-77
2022/12/31 03:59:24;;;;;;;5.85;1.30;;;;;;;-148.88;100.00;74922.19;5033530;28;20023;-77
2022/12/31 04:01:49;;;;;;;1.40;0.98;;;;;;;-148.88;100.00;74928.28;5033237;28;20039;-77
2022/12/31 04:04:14;;;;;;;2.30;0.95;;;;;;;-148.88;100.00;74946.53;5033405;28;20033;-77
2022/12/31 04:06:40;;;;;;;1.10;0.52;;;;;;;-148.88;100.00;74944.53;5015444;28;20030;-77
2022/12/31 04:09:05;;;;;;;0.90;0.50;;;;;;;-148.88;100.00;74940.47;5015238;28;20018;-77
2022/12/31 04:11:30;;;;;;;0.52;0.25;;;;;;;-148.88;100.00;74968.88;5033093;28;20439;-77
2022/12/31 04:13:58;;;;;;;0.45;0.30;;;;;;;-148.88;100.00;74956.69;5033013;28;20492;-77
2022/12/31 04:16:23;;;;;;;0.50;0.30;;;;;;;-148.88;100.00;74952.63;5033467;28;20033;-77
2022/12/31 04:18:48;;;;;;;0.28;0.20;;;;;;;-148.88;100.00;74944.53;5033106;28;20102;-77
2022/12/31 04:21:16;;;;;;;0.57;0.47;;;;;;;-148.88;100.00;74962.78;5015272;28;20064;-77
2022/12/31 04:23:42;;;;;;;0.88;0.40;;;;;;;-148.88;100.00;74950.59;5032924;28;20021;-76
2022/12/31 04:26:07;;;;;;;0.63;0.30;;;;;;;-148.88;100.00;74954.66;5033097;28;20419;-77
2022/12/31 04:28:32;;;;;;;0.40;0.30;;;;;;;-148.88;100.00;74968.88;5032835;28;20029;-76
2022/12/31 04:30:58;;;;;;;0.45;0.30;;;;;;;-148.88;100.00;74958.72;5033055;28;20076;-76
2022/12/31 04:33:23;;;;;;;0.55;0.40;;;;;;;-148.88;100.00;74958.72;5015325;28;20021;-76
2022/12/31 04:35:48;;;;;;;0.30;0.30;;;;;;;-148.88;100.00;74977.00;5032745;28;20064;-77
2022/12/31 04:38:14;;;;;;;1.30;0.20;;;;;;;-148.88;100.00;74981.06;5032773;28;20450;-76
2022/12/31 04:41:15;;;;;;;0.60;0.40;;;;;;;-148.88;100.00;74981.06;5032925;28;20097;-76
2022/12/31 04:43:24;;;;;;;0.45;0.40;;;;;;;-148.88;100.00;74989.19;5032446;28;20029;-76
2022/12/31 04:45:50;;;;;;;1.20;0.35;;;;;;;-148.88;100.00;74991.22;5032633;28;20444;-77
2022/12/31 04:48:15;;;;;;;0.65;0.40;;;;;;;-148.88;100.00;75005.44;5032554;28;20104;-76
2022/12/31 04:50:41;;;;;;;0.47;0.40;;;;;;;-148.88;100.00;75013.56;5032904;28;20060;-76
2022/12/31 04:53:06;;;;;;;0.40;0.28;;;;;;;-148.88;100.00;74989.19;5032481;28;20029;-76
2022/12/31 04:55:31;;;;;;;0.95;0.30;;;;;;;-148.88;100.00;75013.56;5032616;28;20026;-76
2022/12/31 04:57:57;;;;;;;0.60;0.22;;;;;;;-148.88;100.00;75017.63;5034072;28;20030;-76
2022/12/31 05:00:22;;;;;;;1.23;0.40;;;;;;;-148.88;100.00;75017.63;5037274;28;20072;-76
2022/12/31 05:02:47;;;;;;;0.93;0.40;;;;;;;-148.88;100.00;75013.56;5036995;28;20076;-77
2022/12/31 05:05:13;;;;;;;1.15;0.50;;;;;;;-148.88;100.00;75021.69;5036674;28;20029;-76
2022/12/31 05:07:38;;;;;;;1.38;0.57;;;;;;;-148.88;100.00;75021.69;5036927;28;20037;-77
2022/12/31 05:10:04;;;;;;;1.17;0.65;;;;;;;-148.88;100.00;75017.63;5036460;28;20524;-76
2022/12/31 05:12:29;;;;;;;1.00;0.68;;;;;;;-148.88;100.00;75021.69;5036482;28;20034;-77
2022/12/31 05:14:55;;;;;;;1.40;0.50;;;;;;;-148.88;100.00;75029.81;5018526;28;20088;-77
2022/12/31 05:17:20;;;;;;;0.93;0.50;;;;;;;-148.88;100.00;75025.75;5036704;28;20025;-77
2022/12/31 05:19:45;;;;;;;0.88;0.55;;;;;;;-148.88;100.00;75021.69;5036296;28;20026;-77
2022/12/31 05:22:29;;;;;;;1.00;0.45;;;;;;;-148.88;100.00;75009.50;5036520;28;20063;-77
2022/12/31 05:24:58;;;;;;;1.90;0.80;;;;;;;-148.88;100.00;75021.69;5036101;28;20066;-77
2022/12/31 05:27:24;;;;;;;1.52;0.60;;;;;;;-148.88;100.00;75021.69;5036580;28;20026;-77
2022/12/31 05:29:49;;;;;;;1.13;0.68;;;;;;;-148.88;100.00;75017.63;5035989;28;20034;-77
2022/12/31 05:32:15;;;;;;;1.15;0.70;;;;;;;-148.88;100.00;75003.41;5036177;28;20397;-77
2022/12/31 05:34:40;;;;;;;1.70;1.33;;;;;;;-148.88;100.00;75013.56;5035938;28;20100;-76
2022/12/31 05:37:06;;;;;;;1.98;1.48;;;;;;;-148.88;100.00;75005.44;5018378;28;20030;-77
2022/12/31 05:39:31;;;;;;;2.47;1.45;;;;;;;-148.88;100.00;75005.44;5036159;28;20060;-76
2022/12/31 05:41:56;;;;;;;1.45;0.80;;;;;;;-148.88;100.00;74999.34;5018828;28;20021;-77
2022/12/31 05:44:21;;;;;;;0.60;0.40;;;;;;;-148.88;100.00;74989.19;5035836;28;20061;-76
2022/12/31 05:46:47;;;;;;;0.80;0.40;;;;;;;-148.88;100.00;74981.06;5035999;28;20034;-76
2022/12/31 05:49:12;;;;;;;1.05;0.52;;;;;;;-148.88;100.00;74983.09;5035963;28;20030;-76
2022/12/31 05:51:37;;;;;;;0.45;0.40;;;;;;;-148.88;100.00;74960.75;5035712;28;20029;-77
2022/12/31 05:54:03;;;;;;;0.80;0.40;;;;;;;-148.88;100.00;74972.94;5017803;28;20470;-76
2022/12/31 05:56:28;;;;;;;0.65;0.45;;;;;;;-148.88;100.00;74964.81;5035661;28;20025;-77
2022/12/31 05:58:53;;;;;;;1.60;0.77;;;;;;;-148.88;100.00;74954.66;5017962;28;20030;-77
2022/12/31 06:01:19;;;;;;;3.28;1.10;;;;;;;-148.88;100.00;74944.53;5035678;28;20022;-77
2022/12/31 06:03:44;;;;;;;3.35;2.03;;;;;;;-148.88;100.00;74920.16;5017779;28;20033;-77
2022/12/31 06:06:09;;;;;;;5.80;3.33;;;;;;;-148.88;100.00;74883.59;5017700;28;20477;-77
2022/12/31 06:08:35;;;;;;;5.78;3.55;;;;;;;-148.88;100.00;74859.22;5035811;28;20031;-77
2022/12/31 06:11:00;;;;;;;4.13;3.13;;;;;;;-148.88;100.00;74842.97;5017022;28;20482;-77
2022/12/31 06:13:25;;;;;;;5.00;3.30;;;;;;;-148.88;100.00;74838.91;5035783;28;20108;-77
2022/12/31 06:15:50;;;;;;;4.82;3.10;;;;;;;-148.88;100.00;74810.50;5036005;28;20489;-77
2022/12/31 06:18:16;;;;;;;4.60;2.88;;;;;;;-148.88;100.00;74802.38;5035415;28;20017;-77
2022/12/31 06:20:41;;;;;;;3.58;2.85;;;;;;;-148.88;100.00;74800.34;5035427;28;20021;-77
2022/12/31 06:23:06;;;;;;;3.60;2.78;;;;;;;-148.88;100.00;74796.28;5035425;28;20032;-77
2022/12/31 06:25:34;;;;;;;5.80;2.80;;;;;;;-148.88;100.00;74800.34;5036751;28;20478;-78
2022/12/31 06:27:59;;;;;;;3.65;2.42;;;;;;;-148.88;100.00;74798.31;5019811;28;20503;-78
2022/12/31 06:30:24;;;;;;;2.97;2.33;;;;;;;-148.88;100.00;74794.25;5017472;28;20232;-77
2022/12/31 06:32:49;;;;;;;3.65;1.98;;;;;;;-148.88;100.00;74800.34;5036192;28;20075;-78
2022/12/31 06:35:15;;;;;;;4.03;1.92;;;;;;;-148.88;100.00;74812.53;5035938;28;20045;-77
2022/12/31 06:37:40;;;;;;;3.67;1.95;;;;;;;-148.88;100.00;74824.69;5036459;28;20493;-77
2022/12/31 06:40:06;;;;;;;5.93;4.13;;;;;;;-148.88;100.00;74879.53;5036787;28;20022;-77
2022/12/31 06:42:31;;;;;;;3.83;2.88;;;;;;;-148.88;100.00;74960.75;5017596;28;20076;-77
2022/12/31 06:44:57;;;;;;;3.88;3.42;;;;;;;-148.88;100.00;74993.25;5036611;28;20108;-77
2022/12/31 06:47:24;;;;;;;3.17;2.80;;;;;;;-148.88;100.00;75023.72;5036834;28;20104;-78
2022/12/31 06:49:49;;;;;;;3.30;2.42;;;;;;;-148.88;100.00;75025.75;5036662;28;20017;-78
2022/12/31 06:52:14;;;;;;;3.05;1.80;;;;;;;-148.88;100.00;75035.91;5037065;28;20044;-76
2022/12/31 06:54:40;;;;;;;2.47;1.77;;;;;;;-148.88;100.00;75037.94;5019911;28;20025;-77
2022/12/31 06:57:07;;;;;;;2.40;1.70;;;;;;;-148.88;100.00;75037.94;5037347;28;20028;-78
2022/12/31 06:59:33;;;;;;;1.65;1.20;;;;;;;-148.88;100.00;75052.16;5020530;28;20375;-77
2022/12/31 07:02:10;;;;;;;1.60;0.82;;;;;;;-148.88;100.00;75056.22;5038086;28;20449;-78
2022/12/31 07:04:56;;;;;;;1.92;0.60;;;;;;;-148.88;100.00;75062.31;5038419;28;20021;-78
2022/12/31 07:07:33;;;;;;;1.77;0.60;;;;;;;-148.88;100.00;75084.66;5038563;28;20531;-78
2022/12/31 07:10:06;;;;;;;0.50;0.40;;;;;;;-148.88;100.00;75072.47;5038554;28;20137;-78
2022/12/31 07:12:40;;;;;;;0.90;0.50;;;;;;;-148.88;100.00;75062.31;5038832;28;20025;-78
2022/12/31 07:15:24;;;;;;;0.77;0.40;;;;;;;-148.88;100.00;75066.38;5039171;28;20401;-78
2022/12/31 07:18:02;;;;;;;0.88;0.50;;;;;;;-148.88;100.00;75074.50;5037953;28;20025;-78
2022/12/31 07:20:27;;;;;;;2.50;0.50;;;;;;;-148.88;100.00;75074.50;5037870;28;20109;-77
2022/12/31 07:22:53;;;;;;;1.05;0.50;;;;;;;-148.88;100.00;75084.66;5038857;28;20053;-78
2022/12/31 07:25:19;;;;;;;1.20;0.50;;;;;;;-148.88;100.00;75090.72;5038294;28;20032;-78
2022/12/31 07:28:06;;;;;;;0.80;0.50;;;;;;;-148.88;100.00;75098.84;5036001;28;20064;-78
2022/12/31 07:30:37;;;;;;;1.88;0.65;;;;;;;-148.88;100.00;75111.03;5034881;28;20453;-76
2022/12/31 07:33:36;;;;;;;1.42;0.70;;;;;;;-148.88;100.00;75113.06;5019354;28;20406;-78
2022/12/31 07:36:23;;;;;;;1.67;0.90;;;;;;;-148.88;100.00;75111.03;5037211;28;20079;-78
2022/12/31 07:39:02;;;;;;;2.20;1.10;;;;;;;-148.88;100.00;75090.72;5036925;28;20040;-78
2022/12/31 07:41:48;;;;;;;2.25;1.35;;;;;;;-148.88;100.00;75098.84;5037235;28;20037;-78
2022/12/31 07:44:32;;;;;;;2.13;1.40;;;;;;;-148.88;100.00;75096.81;5035388;28;20052;-78
2022/12/31 07:47:00;;;;;;;2.50;1.88;;;;;;;-148.88;100.00;75102.91;5036448;28;20025;-79
2022/12/31 07:49:28;;;;;;;2.42;1.80;;;;;;;-148.88;100.00;75094.81;5035256;28;20060;-78
2022/12/31 07:51:54;;;;;;;2.72;2.00;;;;;;;-148.88;100.00;75086.69;5018822;28;20087;-78
2022/12/31 07:54:20;;;;;;;3.08;2.17;;;;;;;-148.88;100.00;75102.91;5036958;28;20017;-77
2022/12/31 07:56:46;;;;;;;3.90;3.20;;;;;;;-148.88;100.00;75082.63;5036292;28;20526;-78
2022/12/31 07:59:26;;;;;;;4.72;3.33;;;;;;;-148.88;100.00;75078.56;5036263;28;20033;-78
2022/12/31 08:02:23;;;;;;;4.22;2.95;;;;;;;-148.88;100.00;75076.53;5019162;28;20053;-78
2022/12/31 08:04:57;;;;;;;5.28;3.83;;;;;;;-148.88;100.00;75054.19;5036295;28;20513;-78
2022/12/31 08:07:42;;;;;;;5.05;4.20;;;;;;;-148.88;100.00;75033.88;5035690;28;20034;-77
2022/12/31 08:10:27;;;;;;;5.45;4.40;;;;;;;-148.88;100.00;75011.53;5035529;28;20135;-78
2022/12/31 08:13:01;;;;;;;6.25;5.20;;;;;;;-148.88;100.00;75007.47;5017760;28;20474;-78
2022/12/31 08:15:27;;;;;;;7.03;5.20;;;;;;;-148.88;100.00;74987.16;5017925;28;20071;-78
2022/12/31 08:17:53;;;;;;;6.78;5.28;;;;;;;-148.88;100.00;74968.88;5035232;28;20021;-78
2022/12/31 08:20:18;;;;;;;6.22;4.30;;;;;;;-148.88;100.00;74940.47;5036270;28;20533;-78
2022/12/31 08:22:59;;;;;;;6.35;4.60;;;;;;;-148.88;100.00;74934.38;5017650;28;20025;-77
2022/12/31 08:25:51;;;;;;;5.70;3.85;;;;;;;-148.88;100.00;74928.28;5018984;28;20091;-78
2022/12/31 08:28:29;;;;;;;5.57;3.88;;;;;;;-148.88;100.00;74920.16;5036928;28;20044;-78
2022/12/31 08:31:06;;;;;;;6.07;3.88;;;;;;;-148.88;100.00;74903.91;5037363;28;20064;-78
2022/12/31 08:33:55;;;;;;;7.05;3.80;;;;;;;-148.88;100.00;74912.03;5036028;28;20391;-78
2022/12/31 08:36:49;;;;;;;8.65;3.40;;;;;;;-148.88;100.00;74899.84;5036191;28;20029;-77
2022/12/31 08:39:39;;;;;;;6.18;3.58;;;;;;;-148.88;100.00;74891.72;5013044;28;20038;-78
2022/12/31 08:42:19;;;;;;;4.80;3.08;;;;;;;-148.88;100.00;74895.78;5036167;28;20028;-76
2022/12/31 08:45:02;;;;;;;6.28;2.53;;;;;;;-148.88;100.00;74875.47;5036471;28;20196;-78
2022/12/31 08:47:50;;;;;;;2.72;1.50;;;;;;;-148.88;100.00;74834.84;5037059;28;20029;-78
2022/12/31 08:50:17;;;;;;;4.63;1.65;;;;;;;-148.88;100.00;74812.53;5037133;28;20021;-78
2022/12/31 08:52:43;;;;;;;5.47;1.23;;;;;;;-148.88;100.00;74773.94;5037087;28;20028;-78
2022/12/31 08:55:17;;;;;;;3.08;1.35;;;;;;;-148.88;100.00;74745.50;5036962;28;20037;-78
2022/12/31 08:58:05;;;;;;;;;;;;;;;-148.88;100.00;74717.06;5037071;28;20022;-78
2022/12/31 09:00:32;;;;;;;3.05;0.90;;;;;;;-148.88;100.00;74719.09;5018892;28;19909;-78
2022/12/31 09:03:00;;;;;;;3.88;0.90;;;;;;;-148.88;100.00;74704.88;5036694;28;20037;-78
2022/12/31 09:05:53;;;;;;;4.97;1.02;;;;;;;-148.88;100.00;74678.50;5018910;28;20040;-78
2022/12/31 09:08:33;;;;;;;1.97;0.80;;;;;;;-148.88;100.00;74674.44;5019020;28;20036;-78
2022/12/31 09:11:18;;;;;;;3.58;1.05;;;;;;;-148.88;100.00;74654.13;5035473;28;20365;-79
2022/12/31 09:14:02;;;;;;;2.08;0.75;;;;;;;-148.88;100.00;74646.00;5019775;28;20029;-78
2022/12/31 09:16:49;;;;;;;2.95;0.70;;;;;;;-148.88;100.00;74660.22;5036855;28;20033;-76
2022/12/31 09:19:14;;;;;;;3.58;0.80;;;;;;;-148.88;100.00;74631.78;5017443;28;20455;-76
2022/12/31 09:21:43;;;;;;;4.10;0.50;;;;;;;-148.88;100.00;74607.41;5035149;28;20502;-76
2022/12/31 09:24:11;;;;;;;2.97;1.00;;;;;;;-148.88;100.00;74615.53;5034585;28;20048;-77
2022/12/31 09:26:53;;;;;;;1.33;0.60;;;;;;;-148.88;100.00;74611.47;5033968;28;20059;-77
2022/12/31 09:29:47;;;;;;;2.65;0.80;;;;;;;-148.88;100.00;74603.34;5034876;28;20430;-78
2022/12/31 09:32:28;;;;;;;;;;;;;;;-148.88;100.00;74591.19;5035095;28;20105;-77
2022/12/31 09:35:02;;;;;;;3.78;0.93;;;;;;;-148.88;100.00;74593.22;5034637;28;19916;-77
2022/12/31 09:37:43;;;;;;;2.38;0.68;;;;;;;-148.88;100.00;74595.25;5034617;28;20508;-77
2022/12/31 09:40:27;;;;;;;1.77;0.63;;;;;;;-148.88;100.00;74566.81;5035004;28;20030;-78
2022/12/31 09:43:10;;;;;;;2.45;0.60;;;;;;;-148.88;100.00;74550.56;5035457;28;20075;-77
2022/12/31 09:45:45;;;;;;;2.35;0.75;;;;;;;-148.88;100.00;74558.69;5036198;28;20025;-78
2022/12/31 09:48:39;;;;;;;2.55;0.70;;;;;;;-148.88;100.00;74542.44;5037106;28;20025;-78
2022/12/31 09:51:13;;;;;;;4.75;1.02;;;;;;;-148.88;100.00;74536.34;5019178;28;20125;-78
2022/12/31 09:54:00;;;;;;;4.38;0.82;;;;;;;-148.88;99.86;74522.13;5037183;28;20025;-78
2022/12/31 09:56:34;;;;;;;3.28;1.13;;;;;;;-148.88;100.00;74542.44;5037167;28;20056;-77
2022/12/31 09:59:22;;;;;;;3.30;0.90;;;;;;;-148.88;100.00;74538.38;5035595;28;20056;-77
2022/12/31 10:01:55;;;;;;;9.95;5.88;;;;;;;-148.88;99.89;74540.41;5018787;28;20167;-78
2022/12/31 10:04:51;;;;;;;3.13;1.88;;;;;;;-148.88;98.94;74516.03;5039178;28;20389;-78
2022/12/31 10:07:31;;;;;;;5.20;3.28;;;;;;;-148.88;97.41;74509.94;5040304;28;20376;-76
2022/12/31 10:10:29;;;;;;;3.63;3.15;;;;;;;-148.88;96.08;74511.97;5037185;28;20036;-77
2022/12/31 10:13:19;;;;;;;4.55;2.15;;;;;;;-148.88;97.21;74509.94;5037279;28;20026;-77
2022/12/31 10:16:21;;;;;;;3.10;2.40;;;;;;;-148.88;95.36;74511.97;5018327;28;20033;-77
2022/12/31 10:19:21;;;;;;;4.60;2.58;;;;;;;-148.88;96.11;74530.25;5037343;28;20470;-77
2022/12/31 10:21:53;;;;;;;7.65;6.20;;;;;;;-148.88;96.48;74542.44;5036342;28;20029;-78
2022/12/31 10:24:33;;;;;;;4.20;2.67;;;;;;;-148.88;95.64;74534.31;5036865;28;20017;-77
2022/12/31 10:27:15;;;;;;;2.83;1.80;;;;;;;-148.88;94.71;74520.09;5035907;28;20024;-77
2022/12/31 10:30:10;;;;;;;3.70;1.55;;;;;;;-148.88;94.65;74538.38;5036308;28;20025;-78
2022/12/31 10:32:54;;;;;;;3.63;1.52;;;;;;;-148.88;94.40;74534.31;5035401;28;20517;-77
2022/12/31 10:35:42;;;;;;;3.03;1.00;;;;;;;-148.88;92.16;74522.13;5036438;28;20037;-77
2022/12/31 10:38:21;;;;;;;2.97;1.17;;;;;;;-148.88;93.18;74558.69;5035591;28;20057;-77
2022/12/31 10:41:08;;;;;;;1.70;0.75;;;;;;;-148.88;93.48;74540.41;5035706;28;20021;-77
2022/12/31 10:44:19;;;;;;;3.08;0.70;;;;;;;-148.88;95.11;74576.97;5017372;28;20401;-78
2022/12/31 10:46:57;;;;;;;2.30;0.80;;;;;;;-148.88;97.53;74607.41;4975463;28;20033;-77
2022/12/31 10:49:31;;;;;;;3.65;1.00;;;;;;;-148.88;99.37;74613.50;5035931;28;20063;-77
2022/12/31 10:52:15;;;;;;;2.72;1.50;;;;;;;-148.88;100.00;74658.19;5036923;28;20109;-77
2022/12/31 10:54:59;;;;;;;3.35;1.02;;;;;;;-148.88;100.00;74682.56;5036087;28;20017;-77
2022/12/31 10:57:53;;;;;;;1.88;1.00;;;;;;;-148.88;100.00;74684.59;5035909;28;20025;-77
2022/12/31 11:00:20;;;;;;;3.10;0.90;;;;;;;-148.88;100.00;74692.72;5035522;28;20547;-77
2022/12/31 11:03:13;;;;;;;4.28;0.88;;;;;;;-148.88;100.00;74682.56;5036686;28;20071;-77
2022/12/31 11:06:00;;;;;;;2.67;0.90;;;;;;;-148.88;100.00;74676.47;5037843;28;20415;-77
2022/12/31 11:09:07;;;;;;;3.03;0.75;;;;;;;-148.88;100.00;74682.56;5036461;28;20025;-77
2022/12/31 11:11:58;;;;;;;2.85;1.17;;;;;;;-148.88;100.00;74684.59;5035749;28;20053;-77
2022/12/31 11:15:17;;;;;;;2.45;0.77;;;;;;;-148.88;100.00;74678.50;5009345;28;20037;-77
2022/12/31 11:18:19;;;;;;;2.13;0.90;;;;;;;-148.88;100.00;74719.09;4977232;28;20430;-80
2022/12/31 11:20:54;;;;;;;3.63;1.30;;;;;;;-148.88;100.00;74757.69;4962861;28;20030;-79
2022/12/31 11:23:57;;;;;;;5.28;1.33;;;;;;;-148.88;100.00;74769.88;5031914;28;20061;-77
2022/12/31 11:27:01;;;;;;;3.38;1.35;;;;;;;-148.88;100.00;74773.94;5040756;28;20022;-78
2022/12/31 11:30:07;;;;;;;2.85;1.50;;;;;;;-148.88;100.00;74769.88;5040297;28;20033;-78
2022/12/31 11:32:59;;;;;;;3.97;1.45;;;;;;;-148.88;100.00;74765.81;4979792;28;20037;-78
2022/12/31 11:35:42;;;;;;;4.65;1.60;;;;;;;-148.88;100.00;74753.63;5037468;28;20036;-78
2022/12/31 11:38:17;;;;;;;2.78;1.55;;;;;;;-148.88;100.00;74737.38;5027575;28;20025;-78
2022/12/31 11:40:53;;;;;;;3.13;1.30;;;;;;;-148.88;100.00;74741.44;5042200;28;20021;-80
2022/12/31 11:43:38;;;;;;;3.35;1.38;;;;;;;-148.88;100.00;74729.25;5037064;28;20034;-78
2022/12/31 11:46:15;;;;;;;6.57;2.30;;;;;;;-148.88;100.00;74729.25;5037937;28;20018;-80
2022/12/31 11:49:17;;;;;;;3.85;1.60;;;;;;;-148.88;100.00;74715.03;5035817;28;20025;-77
2022/12/31 11:51:58;;;;;;;2.75;2.08;;;;;;;-148.88;100.00;74686.63;5039752;28;20029;-76
2022/12/31 11:54:41;;;;;;;5.53;3.78;;;;;;;-148.88;100.00;74664.28;5035824;28;20033;-77
2022/12/31 11:57:31;;;;;;;4.03;1.52;;;;;;;-148.88;100.00;74635.84;5035352;28;20049;-77